North Battleford Airport
CYQW : now visible

Airfield :











YOU CAN JOIN US ON...

 
LOGIN :

Register | Disclaimer

   EN    FR    IT 

 









Legend :    VFR   Marginal VFR   IFR   Intensive IFR   Very Intensive IFR
Visi :
Ceiling :
>= 8 km
>= 3000ft
5 to 8 km
1000 to 3000 ft
1500m to 5 km
500 to 1000 ft
800 to 1500m
200 to 500 ft
< 800m
< 200 ft
Symbols :   Thunderstorms  Fog  Heavy snow  Heavy precipitations  Wind > 20 kt






- Airport Elevation : 1799 ft
- IATA code : YQW


CYQW - North Battleford

CURRENT METAR :
  • 151400Z AUTO 31012G19KT 9SM -SN OVC020 M13/M17 A2980 RMK SLP139

EXPIRED METARs :
  • 151330Z AUTO 31013KT 9SM OVC020 M13/M17 A2979 RMK SLP139
  • 151300Z AUTO 31013KT 9SM -SN OVC020 M13/M17 A2978 RMK SLP136
  • 151200Z AUTO 32015KT 9SM -SN OVC020 M12/M16 A2977 RMK SLP129

TAF TAF CYQW
Valid from the 15 at 12:00 until the 16 at 00:00 UTC


151140Z 1512/1524 31012KT P6SM -SN OVC020
TEMPO 1512/1518 P6SM NSW BKN025
FM151800 30010KT P6SM BKN020
TEMPO 1518/1524 SCT025 RMK FCST BASED ON AUTO OBS. NXT FCST BY 151800Z



MET'MAP, your aeronautical weather chart ! - Copyright ORBIFLY December 2007 - Disclaimer

ORBIFLY MET'MAP TEAM :

Programming & Development : Alexandra Zaïnal
Concept & original design : Baudouin d'Aumeries
Assistance for programming : Marc-Olivier Méhu
Technical & hardware support : Manuel Goepfert

Contact : metmap@orbifly.com




SOURCES & CREDITS :

   NOAA       Earth
Advisory